sensor_id;sensor_type;location;lat;lon;timestamp;pressure;altitude;pressure_sealevel;temperature
33267;BMP180;19638;49.080;11.896;2023-03-01T00:03:21;96999.00;;;0.30
33267;BMP180;19638;49.080;11.896;2023-03-01T00:07:27;96996.00;;;0.30
33267;BMP180;19638;49.080;11.896;2023-03-01T00:11:31;97009.00;;;0.30
33267;BMP180;19638;49.080;11.896;2023-03-01T00:15:38;97007.00;;;0.20
33267;BMP180;19638;49.080;11.896;2023-03-01T00:19:42;97004.00;;;0.30
33267;BMP180;19638;49.080;11.896;2023-03-01T00:23:46;97007.00;;;0.30
33267;BMP180;19638;49.080;11.896;2023-03-01T00:27:53;97005.00;;;0.30
33267;BMP180;19638;49.080;11.896;2023-03-01T00:31:56;96993.00;;;0.30
33267;BMP180;19638;49.080;11.896;2023-03-01T00:36:04;96996.00;;;0.20
33267;BMP180;19638;49.080;11.896;2023-03-01T00:40:10;96983.00;;;0.20
33267;BMP180;19638;49.080;11.896;2023-03-01T00:44:16;96983.00;;;0.10
33267;BMP180;19638;49.080;11.896;2023-03-01T00:48:19;96983.00;;;0.10
33267;BMP180;19638;49.080;11.896;2023-03-01T00:52:23;96985.00;;;0.10
33267;BMP180;19638;49.080;11.896;2023-03-01T00:56:28;96977.00;;;0.10
33267;BMP180;19638;49.080;11.896;2023-03-01T01:00:34;96983.00;;;0.10
33267;BMP180;19638;49.080;11.896;2023-03-01T01:04:37;96984.00;;;0.10
33267;BMP180;19638;49.080;11.896;2023-03-01T01:08:45;96972.00;;;0.10
33267;BMP180;19638;49.080;11.896;2023-03-01T01:12:49;96970.00;;;0.10
33267;BMP180;19638;49.080;11.896;2023-03-01T01:16:55;96970.00;;;0.10
33267;BMP180;19638;49.080;11.896;2023-03-01T01:21:04;96965.00;;;0.10
33267;BMP180;19638;49.080;11.896;2023-03-01T01:25:08;96957.00;;;0.10
33267;BMP180;19638;49.080;11.896;2023-03-01T01:29:14;96945.00;;;0.10
33267;BMP180;19638;49.080;11.896;2023-03-01T01:33:17;96940.00;;;0.10
33267;BMP180;19638;49.080;11.896;2023-03-01T01:37:25;96940.00;;;0.00
33267;BMP180;19638;49.080;11.896;2023-03-01T01:41:33;96945.00;;;-0.10
33267;BMP180;19638;49.080;11.896;2023-03-01T01:45:43;96931.00;;;-0.10
33267;BMP180;19638;49.080;11.896;2023-03-01T01:49:48;96931.00;;;-0.20
33267;BMP180;19638;49.080;11.896;2023-03-01T01:53:59;96927.00;;;-0.20
33267;BMP180;19638;49.080;11.896;2023-03-01T01:58:06;96927.00;;;-0.30
33267;BMP180;19638;49.080;11.896;2023-03-01T02:02:16;96912.00;;;-0.30
33267;BMP180;19638;49.080;11.896;2023-03-01T02:06:25;96914.00;;;-0.30
33267;BMP180;19638;49.080;11.896;2023-03-01T02:10:33;96917.00;;;-0.40
33267;BMP180;19638;49.080;11.896;2023-03-01T02:14:37;96904.00;;;-0.40
33267;BMP180;19638;49.080;11.896;2023-03-01T02:18:42;96902.00;;;-0.50
33267;BMP180;19638;49.080;11.896;2023-03-01T02:22:46;96909.00;;;-0.60
33267;BMP180;19638;49.080;11.896;2023-03-01T02:26:56;96890.00;;;-0.60
33267;BMP180;19638;49.080;11.896;2023-03-01T02:31:02;96882.00;;;-0.70
33267;BMP180;19638;49.080;11.896;2023-03-01T02:35:24;96878.00;;;-0.80
33267;BMP180;19638;49.080;11.896;2023-03-01T02:39:31;96865.00;;;-0.80
33267;BMP180;19638;49.080;11.896;2023-03-01T02:43:35;96876.00;;;-0.90
33267;BMP180;19638;49.080;11.896;2023-03-01T02:47:44;96877.00;;;-0.90
33267;BMP180;19638;49.080;11.896;2023-03-01T02:51:59;96871.00;;;-0.90
33267;BMP180;19638;49.080;11.896;2023-03-01T02:56:04;96876.00;;;-1.00
33267;BMP180;19638;49.080;11.896;2023-03-01T03:00:15;96869.00;;;-1.00
33267;BMP180;19638;49.080;11.896;2023-03-01T03:04:25;96880.00;;;-1.10
33267;BMP180;19638;49.080;11.896;2023-03-01T03:08:28;96863.00;;;-1.10
33267;BMP180;19638;49.080;11.896;2023-03-01T03:12:31;96854.00;;;-1.10
33267;BMP180;19638;49.080;11.896;2023-03-01T03:16:40;96849.00;;;-1.10
33267;BMP180;19638;49.080;11.896;2023-03-01T03:20:47;96846.00;;;-1.10
33267;BMP180;19638;49.080;11.896;2023-03-01T03:24:54;96848.00;;;-1.10
33267;BMP180;19638;49.080;11.896;2023-03-01T03:29:00;96845.00;;;-1.10
33267;BMP180;19638;49.080;11.896;2023-03-01T03:33:06;96837.00;;;-1.20
33267;BMP180;19638;49.080;11.896;2023-03-01T03:37:15;96836.00;;;-1.20
33267;BMP180;19638;49.080;11.896;2023-03-01T03:41:37;96848.00;;;-1.20
33267;BMP180;19638;49.080;11.896;2023-03-01T03:45:40;96845.00;;;-1.20
33267;BMP180;19638;49.080;11.896;2023-03-01T03:49:45;96837.00;;;-1.30
33267;BMP180;19638;49.080;11.896;2023-03-01T03:53:51;96830.00;;;-1.30
33267;BMP180;19638;49.080;11.896;2023-03-01T03:57:57;96829.00;;;-1.30
33267;BMP180;19638;49.080;11.896;2023-03-01T04:02:03;96822.00;;;-1.30
33267;BMP180;19638;49.080;11.896;2023-03-01T04:06:07;96815.00;;;-1.30
33267;BMP180;19638;49.080;11.896;2023-03-01T04:10:14;96819.00;;;-1.30
33267;BMP180;19638;49.080;11.896;2023-03-01T04:14:20;96810.00;;;-1.40
33267;BMP180;19638;49.080;11.896;2023-03-01T04:18:24;96828.00;;;-1.30
33267;BMP180;19638;49.080;11.896;2023-03-01T04:22:28;96819.00;;;-1.30
33267;BMP180;19638;49.080;11.896;2023-03-01T04:26:35;96823.00;;;-1.30
33267;BMP180;19638;49.080;11.896;2023-03-01T04:30:41;96824.00;;;-1.30
33267;BMP180;19638;49.080;11.896;2023-03-01T04:34:45;96818.00;;;-1.30
33267;BMP180;19638;49.080;11.896;2023-03-01T04:38:53;96817.00;;;-1.30
33267;BMP180;19638;49.080;11.896;2023-03-01T04:43:00;96825.00;;;-1.30
33267;BMP180;19638;49.080;11.896;2023-03-01T04:47:04;96820.00;;;-1.30
33267;BMP180;19638;49.080;11.896;2023-03-01T04:51:09;96823.00;;;-1.30
33267;BMP180;19638;49.080;11.896;2023-03-01T04:55:15;96827.00;;;-1.30
33267;BMP180;19638;49.080;11.896;2023-03-01T04:59:34;96827.00;;;-1.30
33267;BMP180;19638;49.080;11.896;2023-03-01T05:03:42;96828.00;;;-1.40
33267;BMP180;19638;49.080;11.896;2023-03-01T05:07:48;96837.00;;;-1.40
33267;BMP180;19638;49.080;11.896;2023-03-01T05:12:04;96836.00;;;-1.40
33267;BMP180;19638;49.080;11.896;2023-03-01T05:16:10;96822.00;;;-1.50
33267;BMP180;19638;49.080;11.896;2023-03-01T05:20:17;96814.00;;;-1.50
33267;BMP180;19638;49.080;11.896;2023-03-01T05:24:26;96833.00;;;-1.60
33267;BMP180;19638;49.080;11.896;2023-03-01T05:28:30;96826.00;;;-1.70
33267;BMP180;19638;49.080;11.896;2023-03-01T05:32:34;96815.00;;;-1.70
33267;BMP180;19638;49.080;11.896;2023-03-01T05:36:37;96807.00;;;-1.80
33267;BMP180;19638;49.080;11.896;2023-03-01T05:40:46;96811.00;;;-1.90
33267;BMP180;19638;49.080;11.896;2023-03-01T05:44:50;96806.00;;;-1.90
33267;BMP180;19638;49.080;11.896;2023-03-01T05:48:54;96804.00;;;-2.00
33267;BMP180;19638;49.080;11.896;2023-03-01T05:53:03;96804.00;;;-2.00
33267;BMP180;19638;49.080;11.896;2023-03-01T05:57:09;96800.00;;;-2.10
33267;BMP180;19638;49.080;11.896;2023-03-01T06:01:12;96794.00;;;-2.10
33267;BMP180;19638;49.080;11.896;2023-03-01T06:05:20;96799.00;;;-2.10
33267;BMP180;19638;49.080;11.896;2023-03-01T06:09:23;96805.00;;;-2.10
33267;BMP180;19638;49.080;11.896;2023-03-01T06:13:27;96802.00;;;-2.10
33267;BMP180;19638;49.080;11.896;2023-03-01T06:17:33;96796.00;;;-2.10
33267;BMP180;19638;49.080;11.896;2023-03-01T06:21:40;96806.00;;;-2.10
33267;BMP180;19638;49.080;11.896;2023-03-01T06:25:43;96810.00;;;-2.10
33267;BMP180;19638;49.080;11.896;2023-03-01T06:29:46;96805.00;;;-2.10
33267;BMP180;19638;49.080;11.896;2023-03-01T06:33:53;96808.00;;;-2.00
33267;BMP180;19638;49.080;11.896;2023-03-01T06:37:59;96803.00;;;-2.00
33267;BMP180;19638;49.080;11.896;2023-03-01T06:42:03;96800.00;;;-1.90
33267;BMP180;19638;49.080;11.896;2023-03-01T06:46:09;96796.00;;;-1.80
33267;BMP180;19638;49.080;11.896;2023-03-01T06:50:13;96802.00;;;-1.70
33267;BMP180;19638;49.080;11.896;2023-03-01T06:54:23;96811.00;;;-1.60
33267;BMP180;19638;49.080;11.896;2023-03-01T06:58:27;96812.00;;;-1.50
33267;BMP180;19638;49.080;11.896;2023-03-01T07:02:33;96809.00;;;-1.40
33267;BMP180;19638;49.080;11.896;2023-03-01T07:06:36;96808.00;;;-1.20
33267;BMP180;19638;49.080;11.896;2023-03-01T07:10:45;96804.00;;;-1.10
33267;BMP180;19638;49.080;11.896;2023-03-01T07:14:48;96806.00;;;-1.00
33267;BMP180;19638;49.080;11.896;2023-03-01T07:18:57;96803.00;;;-0.80
33267;BMP180;19638;49.080;11.896;2023-03-01T07:23:01;96798.00;;;-0.70
33267;BMP180;19638;49.080;11.896;2023-03-01T07:27:05;96798.00;;;-0.60
33267;BMP180;19638;49.080;11.896;2023-03-01T07:31:09;96802.00;;;-0.60
33267;BMP180;19638;49.080;11.896;2023-03-01T07:35:13;96800.00;;;-0.50
33267;BMP180;19638;49.080;11.896;2023-03-01T07:39:17;96801.00;;;-0.40
33267;BMP180;19638;49.080;11.896;2023-03-01T07:43:21;96796.00;;;-0.30
33267;BMP180;19638;49.080;11.896;2023-03-01T07:47:25;96795.00;;;-0.30
33267;BMP180;19638;49.080;11.896;2023-03-01T07:51:28;96792.00;;;-0.30
33267;BMP180;19638;49.080;11.896;2023-03-01T07:55:36;96795.00;;;-0.10
33267;BMP180;19638;49.080;11.896;2023-03-01T07:59:42;96798.00;;;0.00
33267;BMP180;19638;49.080;11.896;2023-03-01T08:03:45;96798.00;;;0.10
33267;BMP180;19638;49.080;11.896;2023-03-01T08:07:48;96796.00;;;0.20
33267;BMP180;19638;49.080;11.896;2023-03-01T08:11:51;96791.00;;;0.30
33267;BMP180;19638;49.080;11.896;2023-03-01T08:16:05;96785.00;;;0.40
33267;BMP180;19638;49.080;11.896;2023-03-01T08:20:10;96788.00;;;0.50
33267;BMP180;19638;49.080;11.896;2023-03-01T08:24:14;96785.00;;;0.70
33267;BMP180;19638;49.080;11.896;2023-03-01T08:28:17;96786.00;;;0.70
33267;BMP180;19638;49.080;11.896;2023-03-01T08:32:22;96791.00;;;0.80
33267;BMP180;19638;49.080;11.896;2023-03-01T08:36:26;96781.00;;;1.00
33267;BMP180;19638;49.080;11.896;2023-03-01T08:40:30;96780.00;;;1.10
33267;BMP180;19638;49.080;11.896;2023-03-01T08:44:33;96779.00;;;1.20
33267;BMP180;19638;49.080;11.896;2023-03-01T08:48:42;96776.00;;;1.30
33267;BMP180;19638;49.080;11.896;2023-03-01T08:52:45;96773.00;;;1.50
33267;BMP180;19638;49.080;11.896;2023-03-01T08:56:51;96771.00;;;1.70
33267;BMP180;19638;49.080;11.896;2023-03-01T09:00:59;96763.00;;;1.80
33267;BMP180;19638;49.080;11.896;2023-03-01T09:05:06;96762.00;;;2.00
33267;BMP180;19638;49.080;11.896;2023-03-01T09:09:14;96758.00;;;2.10
33267;BMP180;19638;49.080;11.896;2023-03-01T09:13:17;96752.00;;;2.10
33267;BMP180;19638;49.080;11.896;2023-03-01T09:17:21;96750.00;;;2.20
33267;BMP180;19638;49.080;11.896;2023-03-01T09:21:27;96742.00;;;2.40
33267;BMP180;19638;49.080;11.896;2023-03-01T09:25:41;96748.00;;;2.60
33267;BMP180;19638;49.080;11.896;2023-03-01T09:29:45;96735.00;;;2.80
33267;BMP180;19638;49.080;11.896;2023-03-01T09:33:54;96739.00;;;2.80
33267;BMP180;19638;49.080;11.896;2023-03-01T09:38:01;96747.00;;;3.00
33267;BMP180;19638;49.080;11.896;2023-03-01T09:42:10;96730.00;;;3.00
33267;BMP180;19638;49.080;11.896;2023-03-01T09:46:21;96736.00;;;3.10
33267;BMP180;19638;49.080;11.896;2023-03-01T09:50:26;96734.00;;;3.10
33267;BMP180;19638;49.080;11.896;2023-03-01T09:54:37;96730.00;;;3.30
33267;BMP180;19638;49.080;11.896;2023-03-01T09:58:47;96740.00;;;3.50
33267;BMP180;19638;49.080;11.896;2023-03-01T10:02:58;96733.00;;;3.70
33267;BMP180;19638;49.080;11.896;2023-03-01T10:07:21;96725.00;;;3.90
33267;BMP180;19638;49.080;11.896;2023-03-01T10:11:31;96722.00;;;4.20
33267;BMP180;19638;49.080;11.896;2023-03-01T10:15:44;96729.00;;;4.50
33267;BMP180;19638;49.080;11.896;2023-03-01T10:19:48;96708.00;;;4.70
33267;BMP180;19638;49.080;11.896;2023-03-01T10:24:10;96710.00;;;4.90
33267;BMP180;19638;49.080;11.896;2023-03-01T10:28:20;96697.00;;;5.10
33267;BMP180;19638;49.080;11.896;2023-03-01T10:32:27;96690.00;;;5.20
33267;BMP180;19638;49.080;11.896;2023-03-01T10:36:33;96689.00;;;5.30
33267;BMP180;19638;49.080;11.896;2023-03-01T10:40:51;96679.00;;;5.50
33267;BMP180;19638;49.080;11.896;2023-03-01T10:45:15;96681.00;;;5.70
33267;BMP180;19638;49.080;11.896;2023-03-01T10:49:21;96670.00;;;6.20
33267;BMP180;19638;49.080;11.896;2023-03-01T10:53:27;96658.00;;;6.50
33267;BMP180;19638;49.080;11.896;2023-03-01T10:57:38;96649.00;;;6.80
33267;BMP180;19638;49.080;11.896;2023-03-01T11:01:49;96642.00;;;7.00
33267;BMP180;19638;49.080;11.896;2023-03-01T11:06:21;96655.00;;;7.20
33267;BMP180;19638;49.080;11.896;2023-03-01T11:10:28;96642.00;;;7.20
33267;BMP180;19638;49.080;11.896;2023-03-01T11:14:36;96641.00;;;7.10
33267;BMP180;19638;49.080;11.896;2023-03-01T11:18:56;96642.00;;;7.30
33267;BMP180;19638;49.080;11.896;2023-03-01T11:23:04;96634.00;;;7.30
33267;BMP180;19638;49.080;11.896;2023-03-01T11:27:16;96613.00;;;7.20
33267;BMP180;19638;49.080;11.896;2023-03-01T11:31:21;96614.00;;;7.20
33267;BMP180;19638;49.080;11.896;2023-03-01T11:35:28;96606.00;;;7.20
33267;BMP180;19638;49.080;11.896;2023-03-01T11:39:48;96598.00;;;7.10
33267;BMP180;19638;49.080;11.896;2023-03-01T11:43:57;96594.00;;;7.10
33267;BMP180;19638;49.080;11.896;2023-03-01T11:48:15;96588.00;;;7.10
33267;BMP180;19638;49.080;11.896;2023-03-01T11:52:35;96586.00;;;7.20
33267;BMP180;19638;49.080;11.896;2023-03-01T11:56:55;96578.00;;;7.40
33267;BMP180;19638;49.080;11.896;2023-03-01T12:01:12;96577.00;;;7.50
33267;BMP180;19638;49.080;11.896;2023-03-01T12:10:33;96558.00;;;7.50
33267;BMP180;19638;49.080;11.896;2023-03-01T12:14:52;96551.00;;;7.50
33267;BMP180;19638;49.080;11.896;2023-03-01T12:19:22;96544.00;;;7.50
33267;BMP180;19638;49.080;11.896;2023-03-01T12:23:57;96546.00;;;7.50
33267;BMP180;19638;49.080;11.896;2023-03-01T12:28:22;96535.00;;;7.50
33267;BMP180;19638;49.080;11.896;2023-03-01T12:32:46;96524.00;;;7.60
33267;BMP180;19638;49.080;11.896;2023-03-01T12:37:03;96520.00;;;7.70
33267;BMP180;19638;49.080;11.896;2023-03-01T12:41:25;96518.00;;;7.70
33267;BMP180;19638;49.080;11.896;2023-03-01T12:45:46;96522.00;;;7.80
33267;BMP180;19638;49.080;11.896;2023-03-01T12:49:57;96511.00;;;7.90
33267;BMP180;19638;49.080;11.896;2023-03-01T12:54:10;96510.00;;;7.90
33267;BMP180;19638;49.080;11.896;2023-03-01T12:58:23;96515.00;;;8.00
33267;BMP180;19638;49.080;11.896;2023-03-01T13:02:56;96514.00;;;7.90
33267;BMP180;19638;49.080;11.896;2023-03-01T13:07:22;96508.00;;;7.90
33267;BMP180;19638;49.080;11.896;2023-03-01T13:11:28;96506.00;;;7.90
33267;BMP180;19638;49.080;11.896;2023-03-01T13:15:34;96495.00;;;7.80
33267;BMP180;19638;49.080;11.896;2023-03-01T13:19:56;96505.00;;;7.90
33267;BMP180;19638;49.080;11.896;2023-03-01T13:24:00;96491.00;;;7.90
33267;BMP180;19638;49.080;11.896;2023-03-01T13:28:36;96495.00;;;7.90
33267;BMP180;19638;49.080;11.896;2023-03-01T13:32:42;96489.00;;;8.00
33267;BMP180;19638;49.080;11.896;2023-03-01T13:36:48;96504.00;;;8.10
33267;BMP180;19638;49.080;11.896;2023-03-01T13:40:59;96503.00;;;8.10
33267;BMP180;19638;49.080;11.896;2023-03-01T13:45:14;96508.00;;;8.10
33267;BMP180;19638;49.080;11.896;2023-03-01T13:49:19;96513.00;;;8.00
33267;BMP180;19638;49.080;11.896;2023-03-01T13:53:29;96516.00;;;8.00
33267;BMP180;19638;49.080;11.896;2023-03-01T13:57:36;96525.00;;;8.00
33267;BMP180;19638;49.080;11.896;2023-03-01T14:01:44;96519.00;;;7.90
33267;BMP180;19638;49.080;11.896;2023-03-01T14:06:00;96522.00;;;7.90
33267;BMP180;19638;49.080;11.896;2023-03-01T14:10:19;96516.00;;;7.90
33267;BMP180;19638;49.080;11.896;2023-03-01T14:14:31;96522.00;;;7.80
33267;BMP180;19638;49.080;11.896;2023-03-01T14:18:44;96523.00;;;7.80
33267;BMP180;19638;49.080;11.896;2023-03-01T14:23:03;96518.00;;;7.80
33267;BMP180;19638;49.080;11.896;2023-03-01T14:27:13;96519.00;;;7.80
33267;BMP180;19638;49.080;11.896;2023-03-01T14:31:32;96511.00;;;7.80
33267;BMP180;19638;49.080;11.896;2023-03-01T14:35:55;96514.00;;;7.80
33267;BMP180;19638;49.080;11.896;2023-03-01T14:40:00;96510.00;;;7.90
33267;BMP180;19638;49.080;11.896;2023-03-01T14:44:11;96507.00;;;7.90
33267;BMP180;19638;49.080;11.896;2023-03-01T14:48:18;96503.00;;;7.90
33267;BMP180;19638;49.080;11.896;2023-03-01T14:52:30;96502.00;;;8.00
33267;BMP180;19638;49.080;11.896;2023-03-01T14:56:44;96502.00;;;8.00
33267;BMP180;19638;49.080;11.896;2023-03-01T15:00:52;96503.00;;;8.00
33267;BMP180;19638;49.080;11.896;2023-03-01T15:04:58;96498.00;;;7.90
33267;BMP180;19638;49.080;11.896;2023-03-01T15:09:05;96505.00;;;7.90
33267;BMP180;19638;49.080;11.896;2023-03-01T15:13:19;96487.00;;;7.90
33267;BMP180;19638;49.080;11.896;2023-03-01T15:17:31;96478.00;;;7.90
33267;BMP180;19638;49.080;11.896;2023-03-01T15:21:38;96485.00;;;7.90
33267;BMP180;19638;49.080;11.896;2023-03-01T15:25:44;96475.00;;;7.80
33267;BMP180;19638;49.080;11.896;2023-03-01T15:29:49;96475.00;;;7.80
33267;BMP180;19638;49.080;11.896;2023-03-01T15:34:20;96484.00;;;7.80
33267;BMP180;19638;49.080;11.896;2023-03-01T15:38:27;96484.00;;;7.80
33267;BMP180;19638;49.080;11.896;2023-03-01T15:42:38;96472.00;;;7.70
33267;BMP180;19638;49.080;11.896;2023-03-01T15:46:46;96476.00;;;7.60
33267;BMP180;19638;49.080;11.896;2023-03-01T15:50:56;96470.00;;;7.50
33267;BMP180;19638;49.080;11.896;2023-03-01T15:55:03;96464.00;;;7.40
33267;BMP180;19638;49.080;11.896;2023-03-01T15:59:10;96460.00;;;7.30
33267;BMP180;19638;49.080;11.896;2023-03-01T16:03:15;96452.00;;;7.20
33267;BMP180;19638;49.080;11.896;2023-03-01T16:07:27;96453.00;;;7.10
33267;BMP180;19638;49.080;11.896;2023-03-01T16:11:32;96475.00;;;7.00
33267;BMP180;19638;49.080;11.896;2023-03-01T16:15:38;96461.00;;;6.90
33267;BMP180;19638;49.080;11.896;2023-03-01T16:19:44;96455.00;;;6.80
33267;BMP180;19638;49.080;11.896;2023-03-01T16:23:50;96459.00;;;6.70
33267;BMP180;19638;49.080;11.896;2023-03-01T16:27:54;96449.00;;;6.60
33267;BMP180;19638;49.080;11.896;2023-03-01T16:32:12;96448.00;;;6.60
33267;BMP180;19638;49.080;11.896;2023-03-01T16:36:19;96454.00;;;6.50
33267;BMP180;19638;49.080;11.896;2023-03-01T16:40:28;96452.00;;;6.30
33267;BMP180;19638;49.080;11.896;2023-03-01T16:44:32;96452.00;;;6.20
33267;BMP180;19638;49.080;11.896;2023-03-01T16:48:39;96450.00;;;6.10
33267;BMP180;19638;49.080;11.896;2023-03-01T16:52:45;96444.00;;;6.00
33267;BMP180;19638;49.080;11.896;2023-03-01T16:56:51;96459.00;;;5.90
33267;BMP180;19638;49.080;11.896;2023-03-01T17:01:06;96463.00;;;5.80
33267;BMP180;19638;49.080;11.896;2023-03-01T17:05:10;96457.00;;;5.70
33267;BMP180;19638;49.080;11.896;2023-03-01T17:09:13;96461.00;;;5.60
33267;BMP180;19638;49.080;11.896;2023-03-01T17:13:20;96472.00;;;5.50
33267;BMP180;19638;49.080;11.896;2023-03-01T17:17:25;96475.00;;;5.40
33267;BMP180;19638;49.080;11.896;2023-03-01T17:21:29;96476.00;;;5.30
33267;BMP180;19638;49.080;11.896;2023-03-01T17:25:32;96488.00;;;5.20
33267;BMP180;19638;49.080;11.896;2023-03-01T17:29:37;96485.00;;;5.10
33267;BMP180;19638;49.080;11.896;2023-03-01T17:33:41;96487.00;;;5.00
33267;BMP180;19638;49.080;11.896;2023-03-01T17:37:44;96483.00;;;5.00
33267;BMP180;19638;49.080;11.896;2023-03-01T17:41:48;96488.00;;;5.00
33267;BMP180;19638;49.080;11.896;2023-03-01T17:45:56;96496.00;;;4.80
33267;BMP180;19638;49.080;11.896;2023-03-01T17:50:03;96493.00;;;4.80
33267;BMP180;19638;49.080;11.896;2023-03-01T17:54:08;96485.00;;;4.70
33267;BMP180;19638;49.080;11.896;2023-03-01T17:58:12;96494.00;;;4.70
33267;BMP180;19638;49.080;11.896;2023-03-01T18:02:20;96493.00;;;4.70
33267;BMP180;19638;49.080;11.896;2023-03-01T18:06:24;96508.00;;;4.70
33267;BMP180;19638;49.080;11.896;2023-03-01T18:10:30;96503.00;;;4.60
33267;BMP180;19638;49.080;11.896;2023-03-01T18:14:33;96513.00;;;4.60
33267;BMP180;19638;49.080;11.896;2023-03-01T18:18:40;96514.00;;;4.50
33267;BMP180;19638;49.080;11.896;2023-03-01T18:22:46;96503.00;;;4.50
33267;BMP180;19638;49.080;11.896;2023-03-01T18:26:50;96520.00;;;4.50
33267;BMP180;19638;49.080;11.896;2023-03-01T18:30:58;96519.00;;;4.40
33267;BMP180;19638;49.080;11.896;2023-03-01T18:35:03;96526.00;;;4.40
33267;BMP180;19638;49.080;11.896;2023-03-01T18:39:06;96530.00;;;4.40
33267;BMP180;19638;49.080;11.896;2023-03-01T18:43:18;96530.00;;;4.30
33267;BMP180;19638;49.080;11.896;2023-03-01T18:47:23;96537.00;;;4.30
33267;BMP180;19638;49.080;11.896;2023-03-01T18:51:27;96534.00;;;4.30
33267;BMP180;19638;49.080;11.896;2023-03-01T18:55:34;96530.00;;;4.30
33267;BMP180;19638;49.080;11.896;2023-03-01T18:59:39;96534.00;;;4.30
33267;BMP180;19638;49.080;11.896;2023-03-01T19:03:43;96529.00;;;4.30
33267;BMP180;19638;49.080;11.896;2023-03-01T19:07:50;96543.00;;;4.30
33267;BMP180;19638;49.080;11.896;2023-03-01T19:11:55;96531.00;;;4.30
33267;BMP180;19638;49.080;11.896;2023-03-01T19:16:02;96536.00;;;4.30
33267;BMP180;19638;49.080;11.896;2023-03-01T19:20:09;96537.00;;;4.30
33267;BMP180;19638;49.080;11.896;2023-03-01T19:24:14;96550.00;;;4.30
33267;BMP180;19638;49.080;11.896;2023-03-01T19:28:17;96524.00;;;4.30
33267;BMP180;19638;49.080;11.896;2023-03-01T19:32:21;96530.00;;;4.20
33267;BMP180;19638;49.080;11.896;2023-03-01T19:36:27;96528.00;;;4.20
33267;BMP180;19638;49.080;11.896;2023-03-01T19:40:37;96525.00;;;4.20
33267;BMP180;19638;49.080;11.896;2023-03-01T19:44:42;96525.00;;;4.10
33267;BMP180;19638;49.080;11.896;2023-03-01T19:48:50;96529.00;;;4.10
33267;BMP180;19638;49.080;11.896;2023-03-01T19:52:55;96533.00;;;4.00
33267;BMP180;19638;49.080;11.896;2023-03-01T19:57:01;96524.00;;;4.00
33267;BMP180;19638;49.080;11.896;2023-03-01T20:01:17;96523.00;;;4.00
33267;BMP180;19638;49.080;11.896;2023-03-01T20:05:21;96527.00;;;4.00
33267;BMP180;19638;49.080;11.896;2023-03-01T20:09:27;96517.00;;;4.00
33267;BMP180;19638;49.080;11.896;2023-03-01T20:13:32;96514.00;;;4.10
33267;BMP180;19638;49.080;11.896;2023-03-01T20:17:37;96518.00;;;4.10
33267;BMP180;19638;49.080;11.896;2023-03-01T20:21:40;96514.00;;;4.10
33267;BMP180;19638;49.080;11.896;2023-03-01T20:25:47;96518.00;;;4.10
33267;BMP180;19638;49.080;11.896;2023-03-01T20:29:53;96510.00;;;4.10
33267;BMP180;19638;49.080;11.896;2023-03-01T20:33:59;96515.00;;;4.00
33267;BMP180;19638;49.080;11.896;2023-03-01T20:38:03;96508.00;;;4.00
33267;BMP180;19638;49.080;11.896;2023-03-01T20:42:06;96505.00;;;4.00
33267;BMP180;19638;49.080;11.896;2023-03-01T20:46:12;96504.00;;;3.90
33267;BMP180;19638;49.080;11.896;2023-03-01T20:50:16;96499.00;;;3.80
33267;BMP180;19638;49.080;11.896;2023-03-01T20:54:21;96501.00;;;3.80
33267;BMP180;19638;49.080;11.896;2023-03-01T20:58:24;96499.00;;;3.80
33267;BMP180;19638;49.080;11.896;2023-03-01T21:02:29;96498.00;;;3.70
33267;BMP180;19638;49.080;11.896;2023-03-01T21:06:34;96502.00;;;3.60
33267;BMP180;19638;49.080;11.896;2023-03-01T21:10:49;96485.00;;;3.60
33267;BMP180;19638;49.080;11.896;2023-03-01T21:14:52;96484.00;;;3.50
33267;BMP180;19638;49.080;11.896;2023-03-01T21:19:00;96485.00;;;3.40
33267;BMP180;19638;49.080;11.896;2023-03-01T21:23:04;96496.00;;;3.30
33267;BMP180;19638;49.080;11.896;2023-03-01T21:27:10;96493.00;;;3.20
33267;BMP180;19638;49.080;11.896;2023-03-01T21:31:15;96484.00;;;3.10
33267;BMP180;19638;49.080;11.896;2023-03-01T21:35:22;96490.00;;;3.10
33267;BMP180;19638;49.080;11.896;2023-03-01T21:39:28;96494.00;;;3.00
33267;BMP180;19638;49.080;11.896;2023-03-01T21:43:31;96478.00;;;3.00
33267;BMP180;19638;49.080;11.896;2023-03-01T21:47:35;96485.00;;;2.90
33267;BMP180;19638;49.080;11.896;2023-03-01T21:51:42;96477.00;;;2.90
33267;BMP180;19638;49.080;11.896;2023-03-01T21:55:50;96484.00;;;2.80
33267;BMP180;19638;49.080;11.896;2023-03-01T21:59:53;96484.00;;;2.80
33267;BMP180;19638;49.080;11.896;2023-03-01T22:03:59;96477.00;;;2.80
33267;BMP180;19638;49.080;11.896;2023-03-01T22:08:07;96476.00;;;2.80
33267;BMP180;19638;49.080;11.896;2023-03-01T22:12:10;96461.00;;;2.70
33267;BMP180;19638;49.080;11.896;2023-03-01T22:16:13;96466.00;;;2.70
33267;BMP180;19638;49.080;11.896;2023-03-01T22:20:21;96474.00;;;2.70
33267;BMP180;19638;49.080;11.896;2023-03-01T22:24:27;96471.00;;;2.70
33267;BMP180;19638;49.080;11.896;2023-03-01T22:28:30;96467.00;;;2.60
33267;BMP180;19638;49.080;11.896;2023-03-01T22:32:36;96469.00;;;2.60
33267;BMP180;19638;49.080;11.896;2023-03-01T22:36:44;96468.00;;;2.60
33267;BMP180;19638;49.080;11.896;2023-03-01T22:40:56;96460.00;;;2.50
33267;BMP180;19638;49.080;11.896;2023-03-01T22:45:02;96461.00;;;2.50
33267;BMP180;19638;49.080;11.896;2023-03-01T22:49:05;96455.00;;;2.50
33267;BMP180;19638;49.080;11.896;2023-03-01T22:53:10;96448.00;;;2.40
33267;BMP180;19638;49.080;11.896;2023-03-01T22:57:16;96450.00;;;2.40
33267;BMP180;19638;49.080;11.896;2023-03-01T23:01:21;96441.00;;;2.40
33267;BMP180;19638;49.080;11.896;2023-03-01T23:05:25;96448.00;;;2.40
33267;BMP180;19638;49.080;11.896;2023-03-01T23:09:31;96442.00;;;2.40
33267;BMP180;19638;49.080;11.896;2023-03-01T23:13:39;96438.00;;;2.40
33267;BMP180;19638;49.080;11.896;2023-03-01T23:17:42;96440.00;;;2.40
33267;BMP180;19638;49.080;11.896;2023-03-01T23:21:45;96438.00;;;2.30
33267;BMP180;19638;49.080;11.896;2023-03-01T23:25:56;96429.00;;;2.30
33267;BMP180;19638;49.080;11.896;2023-03-01T23:30:01;96424.00;;;2.40
33267;BMP180;19638;49.080;11.896;2023-03-01T23:34:10;96421.00;;;2.40
33267;BMP180;19638;49.080;11.896;2023-03-01T23:38:13;96415.00;;;2.40
33267;BMP180;19638;49.080;11.896;2023-03-01T23:42:19;96419.00;;;2.40
33267;BMP180;19638;49.080;11.896;2023-03-01T23:46:26;96416.00;;;2.40
33267;BMP180;19638;49.080;11.896;2023-03-01T23:50:30;96413.00;;;2.40